Flight Track Log - Related Links

Times and Time Zones

All times are in EDT time to prevent confusion due to time zone crossing. See the SWA1668 flight status page for this flight to view local times or setup timezone preferences in your user account.

Time Position Orientation Groundspeed Altitude Reporting Facility
EDT Latitude Longitude Course Direction KTS MPH feet Rate Location/Type
Thu 12:59:25 AM 40.8128 -112.0303 300° West 174 200 6,400  Level Salt Lake Center
Thu 12:59:52 AM 40.8208 -112.0736 284° West 216 249 7,900 2,754 Climbing Salt Lake Center
Thu 01:00:26 AM 40.8281 -112.1156 283° West 247 284 9,200 3,095 Climbing Salt Lake Center
Thu 01:01:27 AM 40.7922 -112.2114 244° Southwest 313 360 12,800 3,769 Climbing Salt Lake Center
Thu 01:02:27 AM 40.6969 -112.2389 192° South 348 400 16,800 3,471 Climbing Salt Lake Center
Thu 01:03:28 AM 40.5914 -112.2778 196° South 387 445 19,800 3,000 Climbing Salt Lake Center
Thu 01:04:29 AM 40.4756 -112.3142 193° South 425 489 22,900 2,803 Climbing Salt Lake Center
Thu 01:05:30 AM 40.3356 -112.3608 194° South 434 499 25,500 2,607 Climbing Salt Lake Center
Thu 01:06:31 AM 40.2175 -112.4053 196° South 448 516 28,200 2,656 Climbing Salt Lake Center
Thu 01:07:32 AM 40.0844 -112.4031 179° South 478 550 30,900 1,869 Climbing Salt Lake Center
Thu 01:08:33 AM 39.9511 -112.4039 180° South 480 552 32,000 545 Climbing Salt Lake Center
Thu 01:09:33 AM 39.8178 -112.4044 180° South 477 549 32,000 893 Level Salt Lake Center
Thu 01:10:34 AM 39.6767 -112.4033 180° South 503 579 33,800 1,475 Climbing Salt Lake Center
Thu 01:11:35 AM 39.5372 -112.4031 180° South 503 579 35,000 590 Climbing Salt Lake Center
Thu 01:12:36 AM 39.3992 -112.4047 181° South 499 574 35,000  Level Salt Lake Center
Thu 01:13:37 AM 39.2606 -112.4039 180° South 498 573 35,000 50 Level Salt Lake Center
Thu 01:14:37 AM 39.1242 -112.4042 180° South 499 574 35,100 1,140 Climbing Salt Lake Center
Thu 01:15:38 AM 38.9850 -112.4022 179° South 501 577 37,300 1,967 Climbing Salt Lake Center
Thu 01:16:39 AM 38.8453 -112.4019 180° South 502 578 39,100 1,820 Climbing Salt Lake Center
Thu 01:17:40 AM 38.7072 -112.4022 180° South 498 573 41,000 934 Climbing Salt Lake Center
Thu 01:18:41 AM 38.5778 -112.4025 180° South 474 545 41,000 -248 Level Salt Lake Center
Thu 01:19:41 AM 38.4244 -112.4033 180° South 461 531 40,500 -793 Descending Salt Lake Center
Thu 01:20:42 AM 38.2911 -112.4025 180° South 476 548 39,400 -1,475 Descending Salt Lake Center
Thu 01:21:43 AM 38.1556 -112.4019 180° South 484 557 37,500 -1,918 Descending Salt Lake Center
Thu 01:22:44 AM 38.0192 -112.4022 180° South 487 560 35,500 -1,240 Descending Salt Lake Center
Thu 01:23:44 AM 37.8828 -112.4017 180° South 488 562 35,000 -248 Descending Salt Lake Center
Thu 01:24:45 AM 37.7461 -112.4019 180° South 487 560 35,000  Level Salt Lake Center
Thu 01:25:46 AM 37.6111 -112.4008 180° South 484 557 35,000  Level Salt Lake Center
Thu 01:26:46 AM 37.4792 -112.4011 180° South 474 545 35,000 -50 Level Salt Lake Center
Thu 01:27:47 AM 37.3478 -112.4011 180° South 469 540 34,900 -541 Descending Salt Lake Center
Thu 01:28:48 AM 37.2139 -112.4014 180° South 474 545 33,900 -942 Descending Salt Lake Center
Thu 01:29:48 AM 37.0786 -112.4017 180° South 481 554 33,000 -425 Descending Salt Lake Center
Thu 01:30:55 AM 36.9431 -112.4000 179° South 481 554 33,000 -281 Level Los Angeles Center
Thu 01:31:56 AM 36.8097 -112.4008 180° South 478 550 32,400 -878 Descending Los Angeles Center
Thu 01:32:58 AM 36.6500 -112.4008 180° South 478 550 31,200 -622 Descending Los Angeles Center
Thu 01:34:11 AM 36.5189 -112.4008 180° South 474 545 31,000 -90 Descending Los Angeles Center
Thu 01:35:12 AM 36.3611 -112.3997 180° South 473 544 31,000 -148 Level Los Angeles Center
Thu 01:36:13 AM 36.2283 -112.4006 180° South 475 547 30,700 -582 Descending Los Angeles Center
Thu 01:37:26 AM 36.0953 -112.3997 180° South 477 549 29,700 -761 Descending Los Angeles Center
Thu 01:38:27 AM 35.9364 -112.4056 182° South 480 552 29,000 -344 Descending Los Angeles Center
Thu 01:39:28 AM 35.8000 -112.4139 183° South 488 562 29,000  Level Los Angeles Center
Thu 01:40:29 AM 35.6672 -112.4183 182° South 478 550 29,000  Level Los Angeles Center
Thu 01:41:30 AM 35.5342 -112.3953 172° South 481 554 29,000  Level Los Angeles Center
Thu 01:42:39 AM 35.3733 -112.3669 172° South 483 556 29,000  Level Albuquerque Center
Thu 01:43:39 AM 35.2400 -112.3419 171° South 483 556 29,000  Level Albuquerque Center
Thu 01:44:40 AM 35.1050 -112.3183 172° South 486 559 29,000  Level Albuquerque Center
Thu 01:45:40 AM 34.9706 -112.2947 172° South 487 560 29,000  Level Albuquerque Center
Thu 01:46:42 AM 34.8375 -112.2714 172° South 485 558 29,000 -198 Level Albuquerque Center
Thu 01:47:41 AM 34.7081 -112.2486 172° South 482 555 28,600 -1,300 Descending Albuquerque Center
Thu 01:48:42 AM 34.5872 -112.2272 172° South 450 518 26,400 -2,430 Descending Albuquerque Center
Thu 01:49:42 AM 34.4678 -112.2047 171° South 438 504 23,700 -2,628 Descending Albuquerque Center
Thu 01:50:43 AM 34.3525 -112.1842 172° South 427 491 21,100 -2,529 Descending Albuquerque Center
Thu 01:51:43 AM 34.2428 -112.1642 171° South 409 471 18,600 -2,331 Descending Albuquerque Center
Thu 01:52:44 AM 34.1369 -112.1453 172° South 390 449 16,400 -1,736 Descending Albuquerque Center
Thu 01:53:44 AM 34.0389 -112.1250 170° South 361 415 15,100 -1,650 Descending Albuquerque Center
Thu 01:54:44 AM 33.9247 -112.0947 168° South 354 407 13,100 -1,686 Descending Albuquerque Center
Thu 01:55:45 AM 33.8322 -112.0725 169° South 344 396 11,700 -1,537 Descending Albuquerque Center
Thu 01:56:45 AM 33.7444 -112.0506 168° South 328 377 10,000 -843 Descending Albuquerque Center
Thu 01:57:46 AM 33.6567 -112.0353 172° South 322 371 10,000 -545 Level Albuquerque Center
Thu 01:58:46 AM 33.5769 -112.0169 169° South 297 342 8,900 -1,250 Descending Albuquerque Center
Thu 01:59:46 AM 33.5303 -111.9497 130° Southeast 287 330 7,500 -1,736 Descending Albuquerque Center
Thu 02:00:47 AM 33.5267 -111.8589 93° East 277 319 5,400 -1,388 Descending Albuquerque Center
Thu 02:01:47 AM 33.4958 -111.8033 124° Southeast 228 262 4,700 -800 Descending Albuquerque Center
Thu 02:02:47 AM 33.4575 -111.8450 222° Southwest 185 213 3,800 -694 Descending Albuquerque Center
Thu 02:03:48 AM 33.4353 -111.8883 238° Southwest 147 169 3,300 -744 Descending Albuquerque Center
Thu 02:04:48 AM 33.4308 -111.9275 262° West 121 139 2,300 -843 Descending Albuquerque Center
Thu 02:05:49 AM 33.4317 -111.9647 272° West 113 130 1,600 -595 Descending Albuquerque Center
Thu 02:06:49 AM 33.4303 -112.0075 268° West 112 129 1,100 -500 Descending Albuquerque Center

Login

Don't have an account? Register now (free) for customized features, flight alerts, and more!